Time;durP1;ratioP1;P1;durP2;ratioP2;P2;SDS_P1;SDS_P2;PMS_P1;PMS_P2;Temp;Humidity;BMP_temperature;BMP_pressure;BME280_temperature;BME280_humidity;BME280_pressure;Samples;Min_cycle;Max_cycle;Signal;HPM_P1;HPM_P2
2022/01/03 00:00:06;;;;;;;7.00;3.53;;;12.70;99.90;;;;;;4997006;28;20954;-62
2022/01/03 00:02:32;;;;;;;4.20;2.30;;;12.60;99.90;;;;;;4997536;28;20398;-62
2022/01/03 00:04:58;;;;;;;2.40;1.93;;;12.70;99.90;;;;;;4997316;28;20894;-62
2022/01/03 00:07:25;;;;;;;3.67;1.60;;;12.70;99.90;;;;;;4997393;28;20177;-61
2022/01/03 00:09:51;;;;;;;3.77;2.20;;;12.70;99.90;;;;;;4996646;28;20197;-61
2022/01/03 00:12:20;;;;;;;4.17;2.10;;;12.70;99.90;;;;;;4997084;28;20443;-62
2022/01/03 00:14:47;;;;;;;5.17;1.90;;;12.70;99.90;;;;;;4996982;28;20426;-62
2022/01/03 00:17:12;;;;;;;3.47;1.73;;;12.70;99.90;;;;;;4996901;28;20839;-62
2022/01/03 00:19:38;;;;;;;9.40;1.80;;;12.80;99.90;;;;;;4996889;28;20433;-62
2022/01/03 00:22:06;;;;;;;3.73;1.77;;;12.80;99.90;;;;;;4996878;28;20594;-62
2022/01/03 00:24:34;;;;;;;6.40;2.30;;;12.80;99.90;;;;;;4996863;28;20188;-62
2022/01/03 00:27:04;;;;;;;3.50;1.83;;;12.90;99.90;;;;;;4996843;28;20752;-62
2022/01/03 00:29:40;;;;;;;4.57;2.00;;;12.80;99.90;;;;;;4996493;28;20860;-63
2022/01/03 00:32:08;;;;;;;2.40;1.60;;;12.80;99.90;;;;;;4997143;28;20389;-62
2022/01/03 00:34:36;;;;;;;4.23;1.37;;;12.90;99.90;;;;;;4996534;28;20909;-62
2022/01/03 00:37:02;;;;;;;2.27;1.50;;;12.90;99.90;;;;;;4995305;28;20941;-62
2022/01/03 00:39:31;;;;;;;5.00;1.70;;;12.90;99.90;;;;;;4996062;28;20483;-61
2022/01/03 00:41:58;;;;;;;2.93;1.70;;;12.80;99.90;;;;;;4996196;28;20545;-62
2022/01/03 00:44:25;;;;;;;3.03;1.70;;;12.90;99.90;;;;;;4996126;28;20421;-61
2022/01/03 00:46:53;;;;;;;3.10;1.50;;;12.90;99.90;;;;;;4996101;28;20529;-62
2022/01/03 00:49:19;;;;;;;3.10;1.90;;;12.90;99.90;;;;;;4996129;28;20455;-63
2022/01/03 00:51:45;;;;;;;4.83;2.43;;;12.90;99.90;;;;;;4996177;28;20438;-63
2022/01/03 00:54:11;;;;;;;6.60;1.87;;;13.00;99.90;;;;;;4995999;28;20415;-63
2022/01/03 00:56:43;;;;;;;8.20;2.60;;;12.90;99.90;;;;;;4996047;28;20401;-63
2022/01/03 00:59:09;;;;;;;1.40;1.20;;;12.90;99.90;;;;;;4995534;28;20291;-62
2022/01/03 01:01:37;;;;;;;3.87;1.73;;;13.00;99.90;;;;;;4996239;28;20480;-63
2022/01/03 01:04:07;;;;;;;3.77;2.40;;;12.90;99.90;;;;;;4996270;28;20167;-61
2022/01/03 01:06:34;;;;;;;4.03;1.73;;;12.90;99.90;;;;;;4996176;28;20401;-62
2022/01/03 01:09:04;;;;;;;5.80;1.87;;;12.90;99.90;;;;;;4995633;28;20500;-62
2022/01/03 01:11:31;;;;;;;3.00;1.40;;;12.90;99.90;;;;;;4995905;28;20420;-62
2022/01/03 01:13:57;;;;;;;3.90;2.13;;;12.90;99.90;;;;;;4996226;28;20428;-61
2022/01/03 01:16:24;;;;;;;3.57;2.00;;;12.90;99.90;;;;;;4995757;28;20421;-62
2022/01/03 01:18:51;;;;;;;2.07;1.70;;;12.90;99.90;;;;;;4994395;28;20944;-62
2022/01/03 01:21:18;;;;;;;6.53;1.97;;;12.90;99.90;;;;;;4995712;28;20416;-62
2022/01/03 01:23:44;;;;;;;6.00;2.00;;;12.80;99.90;;;;;;4995874;28;20412;-62
2022/01/03 01:28:55;;;;;;;3.93;1.90;;;12.90;99.90;;;;;;4995716;28;20430;-62
2022/01/03 01:31:23;;;;;;;5.70;2.17;;;12.90;99.90;;;;;;4996401;28;20849;-62
2022/01/03 01:33:52;;;;;;;5.27;2.23;;;12.80;99.90;;;;;;4995725;28;20406;-62
2022/01/03 01:36:22;;;;;;;2.90;1.77;;;12.70;99.90;;;;;;4996407;28;20803;-62
2022/01/03 01:38:51;;;;;;;4.80;1.83;;;12.80;99.90;;;;;;4996166;28;20490;-62
2022/01/03 01:41:19;;;;;;;1.70;1.60;;;12.80;99.90;;;;;;4997978;28;20457;-62
2022/01/03 01:43:47;;;;;;;2.47;1.47;;;12.80;99.90;;;;;;4995313;28;20806;-63
2022/01/03 01:46:15;;;;;;;4.90;1.83;;;12.80;99.90;;;;;;4995546;28;20419;-62
2022/01/03 01:48:45;;;;;;;3.60;1.73;;;12.90;99.90;;;;;;4995482;28;20434;-63
2022/01/03 01:51:13;;;;;;;6.13;2.07;;;12.80;99.90;;;;;;4995141;28;20463;-62
2022/01/03 01:53:44;;;;;;;5.77;2.20;;;12.70;99.90;;;;;;4994994;28;20489;-62
2022/01/03 01:56:44;;;;;;;6.23;1.73;;;12.70;99.90;;;;;;4995471;28;20412;-62
2022/01/03 01:59:20;;;;;;;3.40;1.60;;;12.60;99.90;;;;;;4994977;28;20430;-62
2022/01/03 02:01:57;;;;;;;8.40;2.70;;;12.70;99.90;;;;;;4995267;28;20470;-62
2022/01/03 02:04:34;;;;;;;5.77;2.00;;;12.80;99.90;;;;;;4995550;28;20478;-62
2022/01/03 02:07:41;;;;;;;2.50;1.40;;;12.70;99.90;;;;;;4995150;28;20389;-62
2022/01/03 02:10:12;;;;;;;5.23;1.70;;;12.80;99.90;;;;;;4994403;28;20453;-62
2022/01/03 02:12:41;;;;;;;6.30;1.73;;;12.70;99.90;;;;;;4995691;28;20401;-62
2022/01/03 02:15:11;;;;;;;3.83;1.60;;;12.70;99.90;;;;;;4995296;28;20416;-62
2022/01/03 02:17:39;;;;;;;4.37;2.20;;;12.60;99.90;;;;;;4994924;28;20390;-62
2022/01/03 02:20:10;;;;;;;3.90;2.10;;;12.60;99.90;;;;;;4994888;28;20799;-62
2022/01/03 02:22:37;;;;;;;4.30;1.83;;;12.50;99.90;;;;;;4995879;28;20401;-62
2022/01/03 02:25:07;;;;;;;3.63;2.07;;;12.50;99.90;;;;;;4994635;28;20421;-61
2022/01/03 02:27:33;;;;;;;6.60;1.57;;;12.60;99.90;;;;;;4994727;28;20436;-62
2022/01/03 02:29:59;;;;;;;4.23;1.87;;;12.60;99.90;;;;;;4994493;28;21067;-62
2022/01/03 02:32:25;;;;;;;3.77;2.00;;;12.60;99.90;;;;;;4994409;28;20201;-62
2022/01/03 02:34:51;;;;;;;3.53;2.30;;;12.60;99.90;;;;;;4994228;28;20400;-62
2022/01/03 02:37:17;;;;;;;2.90;2.20;;;12.50;99.90;;;;;;4994562;28;20173;-62
2022/01/03 02:39:44;;;;;;;4.60;1.80;;;12.50;99.90;;;;;;4994071;28;20212;-62
2022/01/03 02:42:10;;;;;;;3.20;1.70;;;12.50;99.90;;;;;;4994232;28;20417;-61
2022/01/03 02:44:36;;;;;;;4.17;1.97;;;12.50;99.90;;;;;;4994387;28;20908;-61
2022/01/03 02:47:01;;;;;;;4.60;2.20;;;12.50;99.90;;;;;;4993925;28;20419;-62
2022/01/03 02:49:27;;;;;;;2.50;1.60;;;12.50;99.90;;;;;;4993880;28;20205;-62
2022/01/03 02:51:53;;;;;;;3.77;1.47;;;12.50;99.90;;;;;;4994231;28;20248;-61
2022/01/03 02:54:18;;;;;;;2.97;1.47;;;12.50;99.90;;;;;;4994584;28;20222;-62
2022/01/03 02:56:44;;;;;;;2.80;2.07;;;12.60;99.90;;;;;;4994011;28;20172;-62
2022/01/03 02:59:16;;;;;;;2.67;1.50;;;12.50;99.90;;;;;;4993860;28;20192;-62
2022/01/03 03:01:43;;;;;;;3.83;1.80;;;12.50;99.90;;;;;;4994320;28;20769;-62
2022/01/03 03:04:08;;;;;;;3.23;1.50;;;12.50;99.90;;;;;;4993890;28;20963;-62
2022/01/03 03:06:34;;;;;;;3.87;1.87;;;12.40;99.90;;;;;;4993967;28;20442;-62
2022/01/03 03:09:04;;;;;;;4.27;1.93;;;12.40;99.90;;;;;;4993936;28;20216;-62
2022/01/03 03:11:33;;;;;;;3.67;1.70;;;12.40;99.90;;;;;;4994292;28;20158;-60
2022/01/03 03:13:59;;;;;;;4.40;1.70;;;12.40;99.90;;;;;;4993887;28;20877;-61
2022/01/03 03:16:25;;;;;;;8.03;1.90;;;12.30;99.90;;;;;;4994257;28;20436;-61
2022/01/03 03:18:51;;;;;;;4.70;1.83;;;12.40;99.90;;;;;;4993643;28;20279;-61
2022/01/03 03:21:16;;;;;;;4.53;1.70;;;12.40;99.90;;;;;;4995710;28;20840;-62
2022/01/03 03:23:42;;;;;;;2.63;1.53;;;12.40;99.90;;;;;;4998118;28;20181;-62
2022/01/03 03:26:09;;;;;;;4.33;1.40;;;12.40;99.90;;;;;;4997653;28;20262;-62
2022/01/03 03:28:35;;;;;;;2.20;1.20;;;12.40;99.90;;;;;;4997637;28;20198;-62
2022/01/03 03:31:02;;;;;;;4.10;1.70;;;12.40;99.90;;;;;;4998057;28;20505;-62
2022/01/03 03:33:29;;;;;;;6.00;2.53;;;12.50;99.90;;;;;;4997620;28;20421;-61
2022/01/03 03:35:55;;;;;;;3.70;1.80;;;12.30;99.90;;;;;;4997974;28;20412;-60
2022/01/03 03:38:28;;;;;;;3.70;1.60;;;12.30;99.90;;;;;;4997645;28;20872;-62
2022/01/03 03:40:55;;;;;;;6.20;1.50;;;12.30;99.90;;;;;;4997701;28;20768;-62
2022/01/03 03:43:20;;;;;;;6.37;1.80;;;12.20;99.90;;;;;;4997423;28;20422;-62
2022/01/03 03:45:48;;;;;;;3.57;1.43;;;12.10;99.90;;;;;;4997386;28;20888;-62
2022/01/03 03:48:14;;;;;;;4.37;1.80;;;12.10;99.90;;;;;;4997879;28;20286;-62
2022/01/03 03:50:40;;;;;;;7.30;1.67;;;12.10;99.90;;;;;;4997039;28;20499;-62
2022/01/03 03:53:05;;;;;;;5.17;1.53;;;12.20;99.90;;;;;;4997205;28;20414;-62
2022/01/03 03:55:31;;;;;;;2.70;1.20;;;12.20;99.90;;;;;;4997523;28;20570;-62
2022/01/03 03:57:58;;;;;;;2.50;1.53;;;12.20;99.90;;;;;;4997763;28;20175;-62
2022/01/03 04:00:23;;;;;;;3.57;1.33;;;12.10;99.90;;;;;;4997982;28;20408;-62
2022/01/03 04:02:49;;;;;;;4.17;1.60;;;12.00;99.90;;;;;;4997209;28;20973;-62
2022/01/03 04:05:14;;;;;;;4.60;1.30;;;12.00;99.90;;;;;;4997108;28;20347;-62
2022/01/03 04:07:40;;;;;;;4.10;1.27;;;12.00;99.90;;;;;;4997322;28;20604;-62
2022/01/03 04:10:09;;;;;;;6.07;1.87;;;12.10;99.90;;;;;;4996731;28;20209;-61
2022/01/03 04:12:35;;;;;;;7.37;2.07;;;12.00;99.90;;;;;;4996716;28;20412;-62
2022/01/03 04:15:00;;;;;;;2.80;1.77;;;12.00;99.90;;;;;;4997205;28;20762;-62
2022/01/03 04:17:26;;;;;;;4.20;1.27;;;12.10;99.90;;;;;;4996799;28;20196;-61
2022/01/03 04:19:52;;;;;;;2.80;1.87;;;12.20;99.90;;;;;;4996886;28;20748;-62
2022/01/03 04:22:17;;;;;;;3.67;1.60;;;12.10;99.90;;;;;;4997243;28;20522;-62
2022/01/03 04:24:43;;;;;;;4.33;1.40;;;12.10;99.90;;;;;;4996603;28;20267;-62
2022/01/03 04:27:08;;;;;;;4.80;1.70;;;12.00;99.90;;;;;;4996786;28;20173;-62
2022/01/03 04:29:34;;;;;;;4.93;1.43;;;12.00;99.90;;;;;;4996445;28;20201;-62
2022/01/03 04:31:59;;;;;;;2.80;1.50;;;12.20;99.90;;;;;;4995577;28;20178;-62
2022/01/03 04:34:25;;;;;;;4.20;1.60;;;12.10;99.90;;;;;;4996346;28;20243;-62
2022/01/03 04:36:51;;;;;;;4.00;1.40;;;11.90;99.90;;;;;;4996582;28;20653;-61
2022/01/03 04:39:17;;;;;;;4.30;1.10;;;11.80;99.90;;;;;;5020667;23;20227;-64
2022/01/03 04:41:42;;;;;;;6.00;1.60;;;12.10;99.90;;;;;;4996253;28;20586;-65
2022/01/03 04:44:08;;;;;;;4.17;1.60;;;12.40;99.90;;;;;;4995563;28;20170;-64
2022/01/03 04:46:36;;;;;;;6.83;2.03;;;12.50;99.90;;;;;;4996557;28;20197;-64
2022/01/03 04:49:03;;;;;;;7.00;2.10;;;12.50;99.90;;;;;;4996290;28;20195;-64
2022/01/03 04:51:29;;;;;;;5.43;2.00;;;12.40;99.90;;;;;;4996027;28;20764;-63
2022/01/03 04:53:55;;;;;;;4.43;1.80;;;12.60;99.90;;;;;;4996132;28;20437;-64
2022/01/03 04:56:20;;;;;;;5.80;1.60;;;12.60;99.90;;;;;;4995031;28;20549;-64
2022/01/03 04:58:46;;;;;;;5.43;1.97;;;12.60;99.90;;;;;;4995928;28;20193;-64
2022/01/03 05:01:12;;;;;;;4.80;2.07;;;12.60;99.90;;;;;;4996029;28;20192;-64
2022/01/03 05:03:38;;;;;;;3.90;1.53;;;12.50;99.90;;;;;;4995950;28;20177;-64
2022/01/03 05:06:04;;;;;;;5.07;2.23;;;12.50;99.90;;;;;;4996105;28;20405;-63
2022/01/03 05:08:30;;;;;;;6.07;1.97;;;12.40;99.90;;;;;;4995909;28;20427;-63
2022/01/03 05:11:01;;;;;;;7.30;1.97;;;12.40;99.90;;;;;;4995793;28;20193;-64
2022/01/03 05:13:28;;;;;;;4.23;1.67;;;12.40;99.90;;;;;;4996266;28;20476;-63
2022/01/03 05:15:54;;;;;;;6.77;1.97;;;12.00;99.90;;;;;;4995994;28;20497;-64
2022/01/03 05:18:20;;;;;;;6.20;2.00;;;11.80;99.90;;;;;;4995827;28;20412;-63
2022/01/03 05:20:45;;;;;;;4.50;1.90;;;11.60;99.90;;;;;;4996115;28;20581;-63
2022/01/03 05:23:11;;;;;;;6.13;1.90;;;11.70;99.90;;;;;;4995619;28;20252;-63
2022/01/03 05:25:37;;;;;;;5.30;2.03;;;11.60;99.90;;;;;;4995503;28;20170;-63
2022/01/03 05:28:03;;;;;;;5.93;1.80;;;11.70;99.90;;;;;;4995496;28;20547;-63
2022/01/03 05:30:28;;;;;;;8.13;2.10;;;11.80;99.90;;;;;;4995391;28;20197;-63
2022/01/03 05:32:54;;;;;;;10.23;2.80;;;11.80;99.90;;;;;;4995387;28;20406;-63
2022/01/03 05:35:19;;;;;;;7.07;1.70;;;11.60;99.90;;;;;;4994493;28;20163;-63
2022/01/03 05:37:45;;;;;;;6.00;2.00;;;11.60;99.90;;;;;;4995622;28;20173;-63
2022/01/03 05:40:11;;;;;;;3.57;1.60;;;11.70;99.90;;;;;;4995135;28;20209;-63
2022/01/03 05:42:37;;;;;;;4.80;1.80;;;11.70;99.90;;;;;;4995386;28;20573;-63
2022/01/03 05:45:04;;;;;;;4.83;1.50;;;11.70;99.90;;;;;;4995190;28;20416;-63
2022/01/03 05:47:30;;;;;;;4.57;2.20;;;11.60;99.90;;;;;;4995346;28;20173;-63
2022/01/03 05:49:57;;;;;;;3.83;1.40;;;11.60;99.90;;;;;;4995151;28;20972;-63
2022/01/03 05:52:22;;;;;;;3.93;2.10;;;11.60;99.90;;;;;;4995236;28;20468;-64
2022/01/03 05:54:48;;;;;;;3.60;2.27;;;11.50;99.90;;;;;;4995203;28;20408;-63
2022/01/03 05:57:14;;;;;;;3.23;1.77;;;11.50;99.90;;;;;;4994855;28;20670;-63
2022/01/03 05:59:39;;;;;;;5.87;2.50;;;11.30;99.90;;;;;;4994863;28;20240;-63
2022/01/03 06:02:05;;;;;;;4.97;2.73;;;11.20;99.90;;;;;;4994732;28;20512;-63
2022/01/03 06:04:53;;;;;;;6.30;2.30;;;11.20;99.90;;;;;;4994787;28;20207;-63
2022/01/03 06:07:20;;;;;;;3.70;1.80;;;11.30;99.90;;;;;;4994799;28;20893;-63
2022/01/03 06:09:46;;;;;;;8.57;2.97;;;11.30;99.90;;;;;;4994574;28;20540;-63
2022/01/03 06:12:12;;;;;;;4.33;2.43;;;11.30;99.90;;;;;;4994537;28;20487;-64
2022/01/03 06:14:38;;;;;;;9.53;2.33;;;11.20;99.90;;;;;;4994406;28;20230;-63
2022/01/03 06:17:05;;;;;;;6.13;2.07;;;11.10;99.90;;;;;;4995506;28;20489;-64
2022/01/03 06:19:35;;;;;;;5.00;2.40;;;11.20;99.90;;;;;;4994695;28;20480;-63
2022/01/03 06:22:03;;;;;;;5.33;2.30;;;11.20;99.90;;;;;;4994388;28;20441;-63
2022/01/03 06:24:29;;;;;;;4.50;2.13;;;11.20;99.90;;;;;;4994632;28;20407;-63
2022/01/03 06:26:54;;;;;;;5.27;1.60;;;11.40;99.90;;;;;;4994643;28;20773;-63
2022/01/03 06:29:20;;;;;;;4.00;2.10;;;11.50;99.90;;;;;;4994145;28;20560;-64
2022/01/03 06:31:47;;;;;;;3.47;1.90;;;11.50;99.90;;;;;;4993120;28;20222;-63
2022/01/03 06:34:16;;;;;;;2.80;2.03;;;11.50;99.90;;;;;;4994616;28;20196;-64
2022/01/03 06:36:42;;;;;;;2.60;1.80;;;11.40;99.90;;;;;;4994498;28;20408;-63
2022/01/03 06:39:09;;;;;;;5.13;1.90;;;11.50;99.90;;;;;;4994276;28;20447;-63
2022/01/03 06:41:36;;;;;;;3.00;1.73;;;11.40;99.90;;;;;;4994299;28;20186;-63
2022/01/03 06:44:02;;;;;;;4.63;2.23;;;11.30;99.90;;;;;;4994108;28;20406;-63
2022/01/03 06:46:28;;;;;;;5.93;1.97;;;11.20;99.90;;;;;;4995098;28;20788;-63
2022/01/03 06:48:54;;;;;;;6.90;2.97;;;11.20;99.90;;;;;;4994087;28;20435;-63
2022/01/03 06:51:20;;;;;;;5.77;2.47;;;11.10;99.90;;;;;;4993886;28;20195;-63
2022/01/03 06:53:45;;;;;;;4.77;2.00;;;11.20;99.90;;;;;;4993913;28;20179;-64
2022/01/03 06:56:11;;;;;;;6.60;2.00;;;11.20;99.90;;;;;;4993604;28;20240;-64
2022/01/03 06:58:38;;;;;;;2.87;2.30;;;11.10;99.90;;;;;;4993819;28;20192;-63
2022/01/03 07:01:04;;;;;;;4.10;2.03;;;11.10;99.90;;;;;;4994260;28;20534;-64
2022/01/03 07:03:30;;;;;;;3.80;2.13;;;11.10;99.90;;;;;;4993905;28;20418;-63
2022/01/03 07:05:56;;;;;;;5.67;2.30;;;11.10;99.90;;;;;;4993716;28;20491;-63
2022/01/03 07:08:22;;;;;;;5.27;2.60;;;11.20;99.90;;;;;;4993635;28;20517;-63
2022/01/03 07:10:48;;;;;;;7.30;2.10;;;11.20;99.90;;;;;;4994505;28;20234;-63
2022/01/03 07:13:14;;;;;;;7.60;2.20;;;11.30;99.90;;;;;;4993505;28;20168;-63
2022/01/03 07:21:09;;;;;;;5.10;2.90;;;11.30;99.90;;;;;;4993725;28;20817;-63
2022/01/03 07:23:35;;;;;;;5.23;2.37;;;11.30;99.90;;;;;;4993866;28;20425;-63
2022/01/03 07:26:01;;;;;;;10.43;2.87;;;11.30;99.90;;;;;;4993932;28;20836;-63
2022/01/03 07:28:27;;;;;;;6.27;2.93;;;11.30;99.90;;;;;;4993773;28;20270;-63
2022/01/03 07:30:52;;;;;;;8.53;3.10;;;11.30;99.90;;;;;;4993840;28;20204;-63
2022/01/03 07:33:18;;;;;;;8.27;2.47;;;11.10;99.90;;;;;;4993464;28;20267;-64
2022/01/03 07:35:44;;;;;;;7.97;2.10;;;11.00;99.90;;;;;;4993539;28;20175;-63
2022/01/03 07:38:09;;;;;;;6.77;2.87;;;11.10;99.90;;;;;;4993637;28;20173;-63
2022/01/03 07:40:35;;;;;;;6.30;3.60;;;11.10;99.90;;;;;;4993407;28;20216;-63
2022/01/03 07:43:01;;;;;;;7.97;3.70;;;11.00;99.90;;;;;;4993649;28;20203;-63
2022/01/03 07:45:27;;;;;;;7.40;3.00;;;11.00;99.90;;;;;;4993507;28;20507;-63
2022/01/03 07:47:53;;;;;;;4.80;2.90;;;11.00;99.90;;;;;;4993431;28;20795;-63
2022/01/03 07:50:19;;;;;;;14.63;3.33;;;10.90;99.90;;;;;;4994175;28;20457;-63
2022/01/03 07:52:45;;;;;;;5.23;2.60;;;10.90;99.90;;;;;;4993676;28;20525;-63
2022/01/03 07:55:12;;;;;;;4.90;2.40;;;10.90;99.90;;;;;;4993449;28;20426;-63
2022/01/03 07:57:39;;;;;;;6.87;3.03;;;10.90;99.90;;;;;;4993686;28;20211;-63
2022/01/03 08:00:08;;;;;;;7.00;2.83;;;11.00;99.90;;;;;;4993196;28;20519;-63
2022/01/03 08:02:34;;;;;;;5.90;2.40;;;11.00;99.90;;;;;;4993223;28;20431;-64
2022/01/03 08:04:59;;;;;;;6.97;2.50;;;11.10;99.90;;;;;;4993563;28;20917;-65
2022/01/03 08:07:25;;;;;;;10.93;3.43;;;11.20;99.90;;;;;;4994560;28;20179;-63
2022/01/03 08:09:51;;;;;;;6.60;2.73;;;11.00;99.90;;;;;;4996600;28;20216;-64
2022/01/03 08:12:17;;;;;;;3.63;1.83;;;11.10;99.90;;;;;;4997227;28;20580;-64
2022/01/03 08:14:44;;;;;;;11.63;2.70;;;11.10;99.90;;;;;;4997108;28;20167;-64
2022/01/03 08:17:09;;;;;;;4.17;2.00;;;11.00;99.90;;;;;;4996767;28;20909;-64
2022/01/03 08:19:35;;;;;;;5.47;2.00;;;11.00;99.90;;;;;;4996585;28;20521;-64
2022/01/03 08:22:01;;;;;;;5.77;2.33;;;11.10;99.90;;;;;;4996900;28;20254;-64
2022/01/03 08:24:26;;;;;;;4.00;2.27;;;11.10;99.90;;;;;;4996853;28;20175;-64
2022/01/03 08:26:52;;;;;;;5.07;2.83;;;11.10;99.90;;;;;;4996549;28;20187;-64
2022/01/03 08:29:18;;;;;;;5.40;2.30;;;11.10;99.90;;;;;;4996444;28;20525;-64
2022/01/03 08:31:44;;;;;;;7.00;2.57;;;11.30;99.90;;;;;;4996549;28;20506;-64
2022/01/03 08:34:09;;;;;;;5.47;2.87;;;11.30;99.90;;;;;;4996477;28;20161;-64
2022/01/03 08:36:35;;;;;;;8.03;2.50;;;11.30;99.90;;;;;;4996431;28;20210;-64
2022/01/03 08:39:01;;;;;;;6.70;1.97;;;11.40;99.90;;;;;;4996502;28;20296;-64
2022/01/03 08:41:26;;;;;;;3.67;2.00;;;11.40;99.90;;;;;;4996577;28;20254;-64
2022/01/03 08:43:53;;;;;;;5.13;2.23;;;11.50;99.90;;;;;;4996283;28;20179;-64
2022/01/03 08:46:19;;;;;;;8.93;2.17;;;11.50;99.90;;;;;;4996450;28;20171;-64
2022/01/03 08:48:45;;;;;;;5.60;2.03;;;11.50;99.90;;;;;;4996768;28;20439;-64
2022/01/03 08:51:11;;;;;;;4.33;2.23;;;11.70;99.90;;;;;;4996119;28;20456;-64
2022/01/03 08:53:37;;;;;;;5.50;2.90;;;11.80;99.90;;;;;;4995907;28;20444;-63
2022/01/03 08:56:03;;;;;;;5.07;2.67;;;11.80;99.90;;;;;;4996027;28;20406;-63
2022/01/03 08:58:29;;;;;;;4.80;2.60;;;11.90;99.90;;;;;;4995845;28;20408;-64
2022/01/03 09:00:55;;;;;;;5.60;2.70;;;12.00;99.90;;;;;;4996144;28;20411;-64
2022/01/03 09:03:21;;;;;;;4.40;2.13;;;12.00;99.90;;;;;;4995815;28;20495;-64
2022/01/03 09:05:47;;;;;;;9.90;3.00;;;12.10;99.90;;;;;;4996100;28;20202;-64
2022/01/03 09:08:13;;;;;;;8.00;3.60;;;12.00;99.90;;;;;;4995876;28;20181;-64
2022/01/03 09:10:40;;;;;;;6.00;2.97;;;12.00;99.90;;;;;;4995599;28;20449;-63
2022/01/03 09:13:05;;;;;;;6.70;3.70;;;12.00;99.90;;;;;;4996292;28;20420;-63
2022/01/03 09:15:31;;;;;;;7.60;4.13;;;12.00;99.90;;;;;;4995515;28;20423;-64
2022/01/03 09:17:57;;;;;;;5.87;3.70;;;12.00;99.90;;;;;;4995191;28;20177;-63
2022/01/03 09:20:23;;;;;;;9.40;4.60;;;12.10;99.90;;;;;;4995240;28;20527;-63
2022/01/03 09:22:52;;;;;;;9.53;4.50;;;12.10;99.90;;;;;;4995721;28;20178;-63
2022/01/03 09:30:33;;;;;;;5.07;3.20;;;12.30;99.90;;;;;;4994314;28;20222;-64
2022/01/03 09:32:58;;;;;;;4.87;2.70;;;12.30;99.90;;;;;;4995949;28;20408;-63
2022/01/03 09:35:24;;;;;;;6.37;2.80;;;12.40;99.90;;;;;;4995560;28;20173;-64
2022/01/03 09:37:50;;;;;;;9.70;3.80;;;12.50;99.90;;;;;;4995257;28;20625;-63
2022/01/03 09:40:16;;;;;;;5.90;2.67;;;12.20;99.90;;;;;;4995006;28;20249;-63
2022/01/03 09:42:47;;;;;;;8.93;3.63;;;12.20;99.90;;;;;;4995339;28;20215;-63
2022/01/03 09:45:13;;;;;;;6.10;2.13;;;12.20;99.90;;;;;;4995265;28;20460;-63
2022/01/03 09:47:45;;;;;;;6.23;2.03;;;12.30;99.90;;;;;;4995019;28;20491;-64
2022/01/03 09:50:13;;;;;;;7.87;2.40;;;12.10;99.90;;;;;;4995033;28;20199;-63
2022/01/03 09:52:42;;;;;;;4.80;2.10;;;12.40;99.90;;;;;;4994958;28;20924;-63
2022/01/03 09:55:08;;;;;;;5.13;2.70;;;12.40;99.90;;;;;;4994700;28;20405;-64
2022/01/03 09:57:35;;;;;;;4.90;2.00;;;12.50;99.90;;;;;;4993729;28;20877;-64
2022/01/03 10:00:01;;;;;;;4.37;2.00;;;12.60;99.90;;;;;;4994659;28;20439;-64
2022/01/03 10:02:27;;;;;;;3.70;2.13;;;12.40;99.90;;;;;;4994646;28;20416;-64
2022/01/03 10:04:53;;;;;;;3.73;1.70;;;12.30;99.90;;;;;;4994910;28;20431;-64
2022/01/03 10:07:19;;;;;;;7.23;2.10;;;12.30;99.90;;;;;;4994638;28;20410;-64
2022/01/03 10:09:46;;;;;;;7.97;2.83;;;12.40;99.90;;;;;;4994763;28;20208;-64
2022/01/03 10:12:14;;;;;;;4.97;1.90;;;12.50;99.90;;;;;;4994929;28;20530;-63
2022/01/03 10:14:41;;;;;;;4.30;1.67;;;12.70;99.90;;;;;;4994893;28;20392;-62
2022/01/03 10:17:07;;;;;;;4.20;2.30;;;12.70;99.90;;;;;;4994751;28;20759;-64
2022/01/03 10:19:53;;;;;;;6.50;1.70;;;12.50;99.90;;;;;;4994065;28;20430;-63
2022/01/03 10:22:24;;;;;;;4.33;1.50;;;12.60;99.90;;;;;;4994193;28;20976;-63
2022/01/03 10:24:50;;;;;;;5.07;1.90;;;12.80;99.90;;;;;;4994814;28;20387;-63
2022/01/03 10:27:16;;;;;;;4.47;1.73;;;12.80;99.90;;;;;;4994411;28;20400;-63
2022/01/03 10:29:52;;;;;;;4.80;1.90;;;12.60;99.90;;;;;;4993767;28;20455;-63
2022/01/03 10:32:27;;;;;;;5.17;1.70;;;12.70;99.90;;;;;;4994172;28;20161;-63
2022/01/03 10:34:54;;;;;;;6.50;2.50;;;12.80;99.90;;;;;;4994225;28;20871;-63
2022/01/03 10:37:19;;;;;;;5.10;1.70;;;12.80;99.90;;;;;;4993962;28;20461;-63
2022/01/03 10:39:45;;;;;;;4.70;1.90;;;13.00;99.90;;;;;;5026349;23;20903;-61
2022/01/03 10:42:16;;;;;;;5.37;2.37;;;12.80;99.90;;;;;;5014340;28;20645;-61
2022/01/03 10:44:42;;;;;;;3.23;1.70;;;12.90;99.90;;;;;;5014430;28;20190;-62
2022/01/03 10:47:15;;;;;;;5.43;2.00;;;12.90;99.90;;;;;;5014045;28;20819;-61
2022/01/03 10:49:42;;;;;;;4.40;2.10;;;12.90;99.90;;;;;;5013813;28;20509;-62
2022/01/03 10:52:17;;;;;;;4.60;1.77;;;12.90;99.90;;;;;;5013865;28;20962;-62
2022/01/03 10:54:45;;;;;;;6.00;2.10;;;12.90;99.90;;;;;;5013902;28;20453;-62
2022/01/03 10:57:11;;;;;;;3.83;1.57;;;13.00;99.90;;;;;;5013923;28;20403;-62
2022/01/03 10:59:38;;;;;;;6.60;2.03;;;12.90;99.90;;;;;;5013653;28;20764;-62
2022/01/03 11:02:06;;;;;;;3.83;2.00;;;13.10;99.90;;;;;;5014216;28;20163;-62
2022/01/03 11:13:16;;;;;;;5.67;2.50;;;13.20;99.90;;;;;;5013801;28;20818;-62
2022/01/03 11:15:53;;;;;;;6.53;2.53;;;13.00;99.90;;;;;;5013746;28;20383;-61
2022/01/03 11:18:22;;;;;;;2.93;1.50;;;12.80;99.90;;;;;;5013739;28;20407;-62
2022/01/03 11:21:00;;;;;;;5.90;1.80;;;12.90;99.90;;;;;;5013420;28;20468;-62
2022/01/03 11:23:26;;;;;;;3.60;1.63;;;13.10;99.90;;;;;;5013691;28;20402;-61
2022/01/03 11:25:53;;;;;;;9.30;1.70;;;13.00;99.90;;;;;;5013972;28;20492;-61
2022/01/03 11:28:21;;;;;;;4.53;1.43;;;13.20;99.90;;;;;;5013256;28;20170;-61
2022/01/03 11:30:47;;;;;;;4.73;1.57;;;13.10;99.90;;;;;;5013438;28;20456;-61
2022/01/03 11:33:15;;;;;;;3.37;1.70;;;13.00;99.90;;;;;;5013483;28;20422;-60
2022/01/03 11:35:47;;;;;;;5.97;1.90;;;13.30;99.90;;;;;;5013566;28;20845;-62
2022/01/03 11:38:15;;;;;;;6.93;2.60;;;13.60;99.90;;;;;;5013250;28;20385;-62
2022/01/03 11:40:43;;;;;;;6.57;2.30;;;13.50;99.90;;;;;;5012427;28;20446;-62
2022/01/03 11:43:09;;;;;;;4.20;2.20;;;13.50;99.90;;;;;;5015358;28;20545;-61
2022/01/03 11:45:35;;;;;;;6.73;2.10;;;13.30;99.90;;;;;;5016171;28;20491;-62
2022/01/03 11:48:02;;;;;;;3.83;1.60;;;13.40;99.90;;;;;;5015684;28;20192;-62
2022/01/03 11:50:28;;;;;;;7.47;2.13;;;13.50;99.90;;;;;;5015583;28;20485;-62
2022/01/03 11:52:55;;;;;;;8.77;1.67;;;13.70;99.90;;;;;;5015639;28;20905;-62
2022/01/03 11:55:24;;;;;;;4.40;1.67;;;13.60;99.90;;;;;;5015398;28;20909;-62
2022/01/03 12:06:01;;;;;;;5.30;1.60;;;13.60;99.90;;;;;;5016030;28;20420;-62
2022/01/03 12:08:33;;;;;;;4.20;1.47;;;13.50;99.90;;;;;;5023014;28;20409;-61
2022/01/03 12:11:00;;;;;;;4.20;2.10;;;13.40;99.90;;;;;;5015134;28;20452;-61
2022/01/03 12:13:49;;;;;;;5.97;1.87;;;13.30;99.90;;;;;;5015348;28;20409;-61
2022/01/03 12:16:15;;;;;;;2.60;1.37;;;13.20;99.90;;;;;;5009974;28;20474;-61
2022/01/03 12:18:58;;;;;;;3.03;1.40;;;13.20;99.90;;;;;;5015424;28;20505;-60
2022/01/03 12:21:50;;;;;;;7.20;1.80;;;13.30;99.90;;;;;;5015004;28;20898;-61
2022/01/03 12:24:27;;;;;;;4.60;1.60;;;13.30;99.90;;;;;;5015007;28;20488;-61
2022/01/03 12:27:14;;;;;;;3.27;1.40;;;13.20;99.90;;;;;;5016316;28;20403;-61
2022/01/03 12:29:58;;;;;;;4.97;1.70;;;13.30;99.90;;;;;;5014880;28;20462;-62
2022/01/03 12:32:25;;;;;;;5.00;1.83;;;13.20;99.90;;;;;;5014948;28;20407;-62
2022/01/03 12:35:36;;;;;;;2.37;1.60;;;13.40;99.90;;;;;;5015207;28;20746;-61
2022/01/03 12:38:04;;;;;;;3.40;1.83;;;13.50;99.90;;;;;;5015372;28;20385;-62
2022/01/03 12:40:34;;;;;;;8.00;1.70;;;13.40;99.90;;;;;;4979565;28;1051535;-62
2022/01/03 12:43:05;;;;;;;2.20;1.10;;;13.20;99.90;;;;;;5016066;28;20612;-61
2022/01/03 12:45:34;;;;;;;4.80;1.30;;;13.20;99.90;;;;;;5016666;28;20763;-62
2022/01/03 12:48:32;;;;;;;3.63;1.53;;;13.30;99.90;;;;;;5016688;28;20418;-62
2022/01/03 12:51:00;;;;;;;3.83;1.37;;;13.30;99.90;;;;;;5015740;28;20455;-60
2022/01/03 12:53:32;;;;;;;3.70;1.77;;;13.20;99.90;;;;;;5015027;28;20513;-62
2022/01/03 12:56:00;;;;;;;7.47;1.87;;;13.20;99.90;;;;;;5016063;28;20406;-62
2022/01/03 12:58:26;;;;;;;6.97;2.20;;;13.20;99.90;;;;;;5015590;28;20496;-62
2022/01/03 13:00:58;;;;;;;5.27;1.90;;;13.20;99.90;;;;;;5015784;28;20508;-62
2022/01/03 13:03:43;;;;;;;5.10;2.03;;;13.40;99.90;;;;;;5015741;28;20171;-60
2022/01/03 13:06:21;;;;;;;6.23;2.37;;;13.50;99.90;;;;;;5015702;28;20458;-62
2022/01/03 13:08:55;;;;;;;3.40;1.43;;;13.60;99.90;;;;;;5015377;28;20431;-62
2022/01/03 13:11:33;;;;;;;5.80;1.87;;;13.90;99.90;;;;;;5015537;28;20810;-62
2022/01/03 13:14:03;;;;;;;3.57;1.70;;;13.80;99.90;;;;;;5015568;28;20378;-62
2022/01/03 13:16:32;;;;;;;5.10;1.90;;;13.40;99.90;;;;;;5014231;28;20416;-61
2022/01/03 13:19:00;;;;;;;5.53;1.50;;;13.50;99.90;;;;;;5015271;28;20824;-61